Time;durP1;ratioP1;P1;durP2;ratioP2;P2;SDS_P1;SDS_P2;PMS_P1;PMS_P2;Temp;Humidity;BMP_temperature;BMP_pressure;BME280_temperature;BME280_humidity;BME280_pressure;Samples;Min_cycle;Max_cycle;Signal;HPM_P1;HPM_P2
2020/12/24 00:00:17;;;;;;;53.75;24.25;;;;;;;1.58;79.53;93812.03;4951205;29;20081;-40
2020/12/24 00:02:43;;;;;;;61.75;23.35;;;;;;;1.30;79.47;93800.88;4952281;28;20038;-39
2020/12/24 00:05:08;;;;;;;53.58;20.92;;;;;;;1.39;80.25;93812.34;4955171;29;20031;-40
2020/12/24 00:07:34;;;;;;;54.38;14.73;;;;;;;1.33;80.88;93806.09;4952574;29;20651;-40
2020/12/24 00:09:59;;;;;;;44.05;15.23;;;;;;;1.26;80.75;93814.69;4954558;29;20531;-39
2020/12/24 00:12:25;;;;;;;42.65;14.55;;;;;;;1.42;80.82;93813.34;4954402;29;20027;-39
2020/12/24 00:14:50;;;;;;;19.45;8.13;;;;;;;1.49;80.38;93812.94;4954705;29;20038;-40
2020/12/24 00:17:16;;;;;;;31.33;8.77;;;;;;;1.63;79.79;93806.59;4954700;29;20427;-39
2020/12/24 00:19:41;;;;;;;25.98;9.95;;;;;;;1.54;79.68;93812.22;4954754;29;20423;-39
2020/12/24 00:22:07;;;;;;;32.08;12.77;;;;;;;1.68;79.66;93824.22;4954580;29;20035;-40
2020/12/24 00:24:32;;;;;;;41.17;11.25;;;;;;;1.62;79.91;93823.44;4954190;29;20455;-40
2020/12/24 00:26:58;;;;;;;37.42;15.95;;;;;;;1.69;80.00;93815.56;4954594;29;20023;-39
2020/12/24 00:29:23;;;;;;;75.28;28.90;;;;;;;1.89;79.17;93809.28;4954293;29;20030;-39
2020/12/24 00:31:48;;;;;;;76.57;30.27;;;;;;;1.83;79.81;93819.38;4954355;29;20022;-39
2020/12/24 00:34:14;;;;;;;66.75;26.52;;;;;;;1.70;79.84;93813.59;4954412;29;20077;-40
2020/12/24 00:36:39;;;;;;;63.88;21.73;;;;;;;1.58;80.48;93820.94;4953914;29;20027;-44
2020/12/24 00:39:05;;;;;;;49.15;14.13;;;;;;;1.65;80.57;93825.16;4954309;29;20031;-45
2020/12/24 00:41:30;;;;;;;51.45;18.15;;;;;;;1.65;80.96;93828.66;4953748;29;20031;-44
2020/12/24 00:43:56;;;;;;;42.63;15.20;;;;;;;1.79;79.89;93827.03;4953930;29;20117;-45
2020/12/24 00:46:21;;;;;;;40.70;18.05;;;;;;;1.63;80.54;93835.78;4953774;29;20098;-44
2020/12/24 00:48:47;;;;;;;37.42;16.35;;;;;;;1.71;80.11;93831.44;4953762;29;20050;-44
2020/12/24 00:51:12;;;;;;;37.03;16.92;;;;;;;1.62;79.55;93820.72;4953945;29;20015;-44
2020/12/24 00:53:38;;;;;;;26.77;11.63;;;;;;;1.73;80.43;93842.56;4953461;29;20923;-43
2020/12/24 00:56:05;;;;;;;23.58;10.90;;;;;;;1.71;79.64;93840.31;4953525;29;20023;-45
2020/12/24 00:58:30;;;;;;;29.33;9.05;;;;;;;1.66;79.88;93843.75;4953534;29;20031;-45
2020/12/24 01:00:56;;;;;;;28.55;10.60;;;;;;;1.56;80.41;93836.97;4953238;29;20038;-44
2020/12/24 01:03:21;;;;;;;32.78;10.38;;;;;;;1.56;81.29;93839.69;4953256;29;20031;-44
2020/12/24 01:05:46;;;;;;;38.20;9.80;;;;;;;1.79;80.50;93843.38;4953267;29;20041;-42
2020/12/24 01:08:12;;;;;;;22.65;7.97;;;;;;;1.75;80.23;93845.56;4953231;29;20539;-42
2020/12/24 01:10:37;;;;;;;27.77;11.38;;;;;;;1.80;80.35;93839.44;4953174;29;20075;-43
2020/12/24 01:13:03;;;;;;;37.28;11.98;;;;;;;1.79;79.92;93835.94;4953594;29;20134;-44
2020/12/24 01:15:28;;;;;;;24.95;11.88;;;;;;;1.69;79.36;93834.63;4952528;28;20097;-42
2020/12/24 01:17:53;;;;;;;34.67;13.63;;;;;;;1.74;79.76;93833.16;4953346;29;20141;-42
2020/12/24 01:20:19;;;;;;;31.70;12.00;;;;;;;1.75;79.32;93821.81;4953345;29;20477;-43
2020/12/24 01:22:44;;;;;;;32.47;14.18;;;;;;;1.51;79.28;93826.81;4953301;29;20634;-44
2020/12/24 01:25:10;;;;;;;32.92;14.63;;;;;;;1.39;79.99;93814.31;4953239;29;20476;-49
2020/12/24 01:27:36;;;;;;;36.85;13.40;;;;;;;1.56;79.91;93815.19;4953308;29;20086;-44
2020/12/24 01:30:02;;;;;;;26.02;11.63;;;;;;;1.50;80.13;93811.69;4954755;29;20035;-46
2020/12/24 01:32:28;;;;;;;32.08;12.85;;;;;;;1.41;79.87;93809.13;4954791;29;20453;-43
2020/12/24 01:34:53;;;;;;;26.98;11.85;;;;;;;1.08;80.39;93804.13;4954699;29;20053;-42
2020/12/24 01:37:19;;;;;;;25.58;12.05;;;;;;;1.16;81.07;93810.63;4954610;29;20024;-44
2020/12/24 01:39:44;;;;;;;48.55;13.73;;;;;;;1.12;80.54;93799.22;4953984;29;20029;-39
2020/12/24 01:42:10;;;;;;;25.92;12.45;;;;;;;1.06;81.41;93803.84;4954529;29;20023;-39
2020/12/24 01:44:35;;;;;;;28.75;11.02;;;;;;;1.23;81.31;93804.78;4954585;29;20082;-39
2020/12/24 01:47:01;;;;;;;31.58;11.00;;;;;;;1.23;80.34;93795.88;4954221;29;20046;-41
2020/12/24 01:49:26;;;;;;;16.02;8.15;;;;;;;1.33;80.67;93797.94;4954480;29;20035;-40
2020/12/24 01:51:54;;;;;;;18.13;9.43;;;;;;;1.40;81.08;93796.78;4954275;29;20119;-40
2020/12/24 01:54:21;;;;;;;26.00;8.07;;;;;;;1.48;79.83;93789.66;4954469;29;20031;-42
2020/12/24 01:56:47;;;;;;;15.93;8.13;;;;;;;1.42;80.36;93786.91;4954297;29;20023;-40
2020/12/24 01:59:15;;;;;;;21.33;9.88;;;;;;;1.53;80.75;93780.81;4954300;29;20035;-40
2020/12/24 02:01:48;;;;;;;20.55;8.68;;;;;;;1.56;81.02;93781.81;4954079;29;20050;-41
2020/12/24 02:04:13;;;;;;;30.15;8.82;;;;;;;1.57;81.09;93778.63;4954224;29;20027;-40
2020/12/24 02:06:49;;;;;;;27.25;8.80;;;;;;;1.43;80.40;93776.75;4954057;29;20030;-41
2020/12/24 02:09:14;;;;;;;36.13;8.85;;;;;;;1.34;80.19;93785.09;4937043;29;20023;-42
2020/12/24 02:11:40;;;;;;;25.02;7.63;;;;;;;1.30;80.29;93781.84;4954054;29;20050;-42
2020/12/24 02:14:06;;;;;;;18.90;7.63;;;;;;;1.35;79.98;93773.72;4953952;29;20034;-41
2020/12/24 02:16:35;;;;;;;28.33;7.95;;;;;;;1.46;79.36;93776.53;4953758;29;20086;-41
2020/12/24 02:19:02;;;;;;;29.15;9.07;;;;;;;1.32;80.22;93779.41;4954074;29;20497;-40
2020/12/24 02:21:27;;;;;;;28.83;9.57;;;;;;;1.34;79.66;93774.22;4953666;29;20023;-41
2020/12/24 02:23:53;;;;;;;22.05;8.48;;;;;;;1.36;80.51;93774.47;4953871;29;20038;-41
2020/12/24 02:26:18;;;;;;;33.95;10.77;;;;;;;1.39;80.32;93774.25;4953447;28;20030;-41
2020/12/24 02:28:44;;;;;;;21.30;8.45;;;;;;;1.42;81.20;93773.31;4953768;29;20082;-43
2020/12/24 02:31:09;;;;;;;26.83;7.05;;;;;;;1.41;80.98;93769.06;4953668;29;20027;-42
2020/12/24 02:33:35;;;;;;;49.75;13.00;;;;;;;1.39;80.43;93768.81;4953894;29;20071;-40
2020/12/24 02:36:01;;;;;;;65.57;18.95;;;;;;;1.39;80.85;93763.38;4953745;29;20106;-42
2020/12/24 02:38:26;;;;;;;38.70;13.95;;;;;;;1.48;80.54;93767.91;4953586;29;20039;-44
2020/12/24 02:40:52;;;;;;;39.17;13.43;;;;;;;1.29;80.32;93766.75;4953593;29;20102;-41
2020/12/24 02:43:17;;;;;;;48.00;18.33;;;;;;;1.32;81.01;93771.22;4953549;29;20098;-43
2020/12/24 02:45:43;;;;;;;55.65;17.05;;;;;;;1.47;80.15;93758.97;4950435;29;20048;-43
2020/12/24 02:48:08;;;;;;;61.00;20.50;;;;;;;1.29;80.70;93758.59;4934390;29;20477;-42
2020/12/24 02:50:34;;;;;;;50.47;15.82;;;;;;;1.33;80.14;93761.84;4934582;29;20087;-42
2020/12/24 02:52:59;;;;;;;29.77;12.68;;;;;;;1.42;79.96;93767.09;4934295;29;20417;-41
2020/12/24 02:55:24;;;;;;;26.80;13.18;;;;;;;1.28;79.96;93763.28;4934198;29;20065;-42
2020/12/24 02:57:50;;;;;;;29.02;11.32;;;;;;;1.42;79.49;93756.97;4934429;29;20034;-42
2020/12/24 03:00:15;;;;;;;25.70;12.23;;;;;;;1.16;80.31;93756.25;4934184;29;20020;-42
2020/12/24 03:02:41;;;;;;;29.38;12.45;;;;;;;1.19;80.57;93758.00;4934223;29;20034;-41
2020/12/24 03:05:06;;;;;;;33.08;12.88;;;;;;;1.23;80.50;93755.06;4934175;29;20031;-41
2020/12/24 03:07:32;;;;;;;21.42;11.63;;;;;;;1.29;79.76;93748.47;4934106;29;20027;-42
2020/12/24 03:09:57;;;;;;;16.67;7.63;;;;;;;1.47;79.57;93756.25;4934195;29;20046;-42
2020/12/24 03:12:26;;;;;;;17.13;7.78;;;;;;;1.45;79.34;93756.00;4934085;29;20043;-43
2020/12/24 03:14:52;;;;;;;47.95;17.80;;;;;;;1.43;79.46;93755.72;4934196;29;20039;-41
2020/12/24 03:17:19;;;;;;;38.75;16.73;;;;;;;1.43;79.46;93758.47;4934107;29;20035;-42
2020/12/24 03:19:44;;;;;;;31.27;13.57;;;;;;;1.53;79.02;93756.31;4934186;29;20036;-42
2020/12/24 03:22:10;;;;;;;23.55;9.55;;;;;;;1.51;79.92;93756.06;4933971;29;20208;-41
2020/12/24 03:24:35;;;;;;;31.52;10.85;;;;;;;1.63;79.85;93762.31;4934078;29;20027;-42
2020/12/24 03:27:00;;;;;;;25.58;9.77;;;;;;;1.62;79.69;93758.88;4934025;29;20028;-42
2020/12/24 03:29:26;;;;;;;34.00;11.20;;;;;;;1.63;79.46;93749.47;4933963;29;20023;-40
2020/12/24 03:31:51;;;;;;;23.85;10.07;;;;;;;1.60;79.42;93752.41;4933976;29;20437;-41
2020/12/24 03:34:17;;;;;;;25.30;11.07;;;;;;;1.54;80.07;93753.09;4933984;29;20024;-43
2020/12/24 03:36:42;;;;;;;53.10;14.65;;;;;;;1.60;79.96;93750.44;4933952;29;20024;-43
2020/12/24 03:39:08;;;;;;;45.25;13.07;;;;;;;1.66;79.09;93753.19;4936999;29;20031;-41
2020/12/24 03:41:33;;;;;;;53.78;14.95;;;;;;;1.66;78.72;93753.19;4937511;29;20382;-44
2020/12/24 03:43:59;;;;;;;50.20;15.40;;;;;;;1.51;80.16;93745.94;4937635;29;20027;-42
2020/12/24 03:46:24;;;;;;;65.10;13.68;;;;;;;1.44;79.52;93751.81;4945694;29;20043;-43
2020/12/24 03:48:50;;;;;;;35.42;11.40;;;;;;;1.16;81.13;93761.69;4956763;29;20074;-42
2020/12/24 03:51:15;;;;;;;45.75;11.95;;;;;;;1.19;80.94;93755.28;4956604;29;20016;-41
2020/12/24 03:53:40;;;;;;;43.08;10.45;;;;;;;1.22;81.57;93757.03;4956715;29;20027;-43
2020/12/24 03:56:06;;;;;;;43.70;10.52;;;;;;;1.34;81.00;93749.75;4956428;29;20024;-40
2020/12/24 03:58:31;;;;;;;34.40;10.32;;;;;;;1.26;81.19;93749.41;4956524;29;20389;-42
2020/12/24 04:00:57;;;;;;;44.50;11.35;;;;;;;1.24;81.25;93749.16;4956005;29;20492;-41
2020/12/24 04:03:22;;;;;;;46.97;10.80;;;;;;;1.13;81.92;93751.75;4956379;29;20031;-42
2020/12/24 04:05:47;;;;;;;58.00;11.90;;;;;;;1.14;82.83;93758.72;4956381;29;20024;-39
2020/12/24 04:08:13;;;;;;;42.35;11.75;;;;;;;1.10;81.83;93752.00;4956339;29;20023;-41
2020/12/24 04:10:39;;;;;;;38.58;11.07;;;;;;;1.12;82.43;93749.53;4956017;29;20035;-40
2020/12/24 04:13:04;;;;;;;31.88;10.90;;;;;;;1.15;82.84;93738.44;4956292;29;20082;-40
2020/12/24 04:15:29;;;;;;;39.95;9.95;;;;;;;0.84;83.04;93735.69;4956193;29;20535;-41
2020/12/24 04:17:55;;;;;;;33.63;8.48;;;;;;;0.93;83.47;93751.84;4956378;29;20023;-40
2020/12/24 04:20:20;;;;;;;33.83;7.80;;;;;;;1.11;82.34;93748.03;4956015;29;20516;-41
2020/12/24 04:22:46;;;;;;;16.55;7.32;;;;;;;0.95;82.42;93751.34;4955960;29;20019;-41
2020/12/24 04:25:12;;;;;;;32.35;7.10;;;;;;;0.93;83.03;93748.38;4956082;29;20051;-40
2020/12/24 04:27:38;;;;;;;23.27;7.40;;;;;;;0.91;83.04;93746.09;4955954;29;20071;-40
2020/12/24 04:30:04;;;;;;;20.33;6.15;;;;;;;1.05;82.64;93749.94;4955826;29;20071;-41
2020/12/24 04:32:31;;;;;;;23.15;7.93;;;;;;;1.08;81.56;93749.75;4955838;29;20102;-41
2020/12/24 04:34:57;;;;;;;13.75;7.80;;;;;;;0.90;81.85;93747.34;4955873;29;20114;-41
2020/12/24 04:37:22;;;;;;;31.48;11.02;;;;;;;0.93;82.60;93760.00;4955876;29;20022;-42
2020/12/24 04:39:47;;;;;;;22.65;9.55;;;;;;;1.00;82.27;93737.03;4955792;29;20508;-43
2020/12/24 04:42:14;;;;;;;22.13;10.07;;;;;;;1.06;81.55;93749.47;4955663;29;20019;-42
2020/12/24 04:44:41;;;;;;;21.13;10.18;;;;;;;1.24;80.82;93741.00;4955603;29;20394;-42
2020/12/24 04:47:07;;;;;;;20.80;10.20;;;;;;;1.20;80.94;93743.19;4955323;29;20043;-42
2020/12/24 04:49:33;;;;;;;19.00;9.32;;;;;;;1.35;80.38;93754.69;4938407;29;20082;-42
2020/12/24 04:52:00;;;;;;;14.93;7.63;;;;;;;1.29;80.20;93745.75;4955533;29;20485;-41
2020/12/24 04:54:26;;;;;;;19.58;7.63;;;;;;;1.22;80.96;93751.59;4955501;29;20035;-42
2020/12/24 04:56:51;;;;;;;16.13;9.07;;;;;;;1.27;81.22;93756.34;4955452;29;20023;-39
2020/12/24 04:59:18;;;;;;;19.70;7.50;;;;;;;1.29;80.92;93753.16;4955618;29;20023;-39
2020/12/24 05:01:44;;;;;;;37.58;10.35;;;;;;;1.41;79.88;93743.84;4955019;29;20027;-42
2020/12/24 05:04:09;;;;;;;27.58;10.73;;;;;;;1.34;79.90;93747.75;4955449;29;20034;-40
2020/12/24 05:06:34;;;;;;;26.73;10.48;;;;;;;1.30;80.29;93743.78;4955406;29;20479;-42
2020/12/24 05:09:01;;;;;;;30.95;12.65;;;;;;;1.34;81.07;93744.28;4955348;29;20027;-43
2020/12/24 05:11:28;;;;;;;36.70;11.88;;;;;;;1.40;81.24;93745.09;4955277;29;20110;-42
2020/12/24 05:13:54;;;;;;;59.33;21.13;;;;;;;1.45;81.60;93741.66;4955172;29;20031;-42
2020/12/24 05:16:20;;;;;;;56.45;19.02;;;;;;;1.42;81.91;93739.91;4955096;29;20027;-42
2020/12/24 05:18:45;;;;;;;53.97;14.20;;;;;;;1.05;82.64;93739.09;4955184;29;20098;-42
2020/12/24 05:21:11;;;;;;;73.30;21.23;;;;;;;1.13;83.02;93734.69;4954918;29;20031;-41
2020/12/24 05:23:37;;;;;;;56.20;19.83;;;;;;;0.87;83.49;93729.25;4955088;29;20630;-39
2020/12/24 05:26:18;;;;;;;71.15;17.75;;;;;;;0.81;84.43;93747.50;4954987;29;20485;-39
2020/12/24 05:28:44;;;;;;;42.33;12.05;;;;;;;0.92;83.80;93730.56;4954997;29;20452;-40
2020/12/24 05:31:09;;;;;;;47.47;13.32;;;;;;;1.03;83.80;93741.53;4954954;29;20031;-40
2020/12/24 05:33:35;;;;;;;48.13;13.55;;;;;;;0.91;84.13;93740.66;4954696;29;20042;-39
2020/12/24 05:36:32;;;;;;;38.05;13.50;;;;;;;0.93;84.25;93732.81;4954471;29;20039;-38
2020/12/24 05:38:58;;;;;;;36.80;14.38;;;;;;;0.81;84.27;93738.59;4912188;29;20186;-39
2020/12/24 05:41:34;;;;;;;47.35;14.55;;;;;;;0.81;84.30;93730.44;4954776;29;20102;-39
2020/12/24 05:44:09;;;;;;;41.90;13.07;;;;;;;0.81;84.13;93733.91;4954577;29;20073;-39
2020/12/24 05:46:45;;;;;;;39.90;12.35;;;;;;;0.75;84.16;93728.44;4954415;29;20055;-39
2020/12/24 05:49:21;;;;;;;43.20;16.10;;;;;;;0.77;84.73;93720.53;4954637;29;20027;-39
2020/12/24 05:51:58;;;;;;;43.75;18.23;;;;;;;0.80;84.02;93732.44;4954663;29;20023;-39
2020/12/24 05:54:24;;;;;;;55.88;18.25;;;;;;;0.96;83.38;93723.69;4954450;29;20019;-39
2020/12/24 05:56:51;;;;;;;94.15;34.30;;;;;;;1.04;83.40;93704.97;4954303;29;20513;-39
2020/12/24 05:59:18;;;;;;;140.55;58.60;;;;;;;1.01;82.98;93724.97;4921949;29;20047;-39
2020/12/24 06:02:05;;;;;;;105.75;38.85;;;;;;;1.18;82.61;93723.13;4953834;28;20553;-39
2020/12/24 06:04:46;;;;;;;57.25;24.20;;;;;;;0.79;83.16;93709.19;4954297;29;20090;-39
2020/12/24 06:07:31;;;;;;;130.95;51.85;;;;;;;0.73;84.16;93697.53;4954212;29;20023;-42
2020/12/24 06:10:04;;;;;;;65.47;29.35;;;;;;;0.58;84.62;93705.78;4954431;29;20394;-41
2020/12/24 06:12:30;;;;;;;84.95;37.20;;;;;;;0.62;84.97;93716.41;4954217;29;20105;-41
2020/12/24 06:15:00;;;;;;;45.53;22.55;;;;;;;0.68;84.18;93701.66;4954196;29;20062;-41
2020/12/24 06:17:27;;;;;;;64.15;27.38;;;;;;;0.66;84.83;93701.41;4954063;29;20065;-41
2020/12/24 06:19:53;;;;;;;66.65;33.65;;;;;;;0.70;84.87;93703.91;4954033;29;20503;-41
2020/12/24 06:22:20;;;;;;;36.75;19.65;;;;;;;0.81;84.30;93698.56;4953932;29;20031;-40
2020/12/24 06:24:57;;;;;;;35.55;18.38;;;;;;;0.72;84.54;93691.34;4954038;29;20035;-41
2020/12/24 06:27:32;;;;;;;165.30;73.97;;;;;;;0.84;84.64;93691.44;4936812;29;20108;-40
2020/12/24 06:30:07;;;;;;;131.00;64.10;;;;;;;0.86;84.15;93714.19;4936941;29;20504;-40
2020/12/24 06:32:38;;;;;;;65.57;31.17;;;;;;;0.97;84.56;93703.44;4945773;29;20038;-41
2020/12/24 06:35:04;;;;;;;71.10;30.83;;;;;;;0.96;84.43;93693.78;4953723;29;20130;-39
2020/12/24 06:37:39;;;;;;;76.45;36.55;;;;;;;1.05;84.67;93696.34;4953845;29;20544;-39
2020/12/24 06:40:04;;;;;;;68.00;30.23;;;;;;;1.22;83.86;93699.94;4953949;29;20037;-40
2020/12/24 06:42:38;;;;;;;56.22;25.02;;;;;;;1.17;83.26;93694.47;4953493;29;20027;-40
2020/12/24 06:45:21;;;;;;;65.00;28.42;;;;;;;1.13;83.88;93680.31;4953708;29;20035;-40
2020/12/24 06:48:11;;;;;;;46.28;19.60;;;;;;;1.40;82.97;93696.13;4953505;29;20043;-40
2020/12/24 06:50:39;;;;;;;31.50;14.60;;;;;;;1.46;82.87;93703.09;4953684;29;20477;-40
2020/12/24 06:53:32;;;;;;;32.78;15.50;;;;;;;1.37;83.06;93702.50;4953562;29;20130;-42
2020/12/24 06:56:13;;;;;;;26.27;13.93;;;;;;;1.45;83.01;93703.59;4953696;29;20484;-42
2020/12/24 06:58:46;;;;;;;28.52;15.55;;;;;;;1.33;83.55;93700.03;4953496;29;20038;-40
2020/12/24 07:01:28;;;;;;;38.95;20.88;;;;;;;1.53;83.44;93716.25;4953590;29;20043;-40
2020/12/24 07:04:01;;;;;;;29.98;12.80;;;;;;;1.67;82.76;93713.88;4953468;29;20031;-41
2020/12/24 07:06:42;;;;;;;23.30;12.77;;;;;;;1.77;82.99;93718.66;4953473;29;20255;-41
2020/12/24 07:09:10;;;;;;;42.45;18.23;;;;;;;1.78;82.56;93717.41;4953471;29;20035;-40
2020/12/24 07:11:40;;;;;;;31.40;15.60;;;;;;;1.92;82.92;93729.38;4953287;28;20038;-40
2020/12/24 07:14:05;;;;;;;47.85;22.88;;;;;;;2.04;82.76;93728.19;4956734;29;20480;-41
2020/12/24 07:16:48;;;;;;;70.03;29.42;;;;;;;1.93;81.94;93712.53;4957431;29;20118;-40
2020/12/24 07:19:16;;;;;;;55.13;25.23;;;;;;;1.87;83.03;93716.47;4957324;29;20035;-43
2020/12/24 07:21:46;;;;;;;55.95;27.15;;;;;;;2.22;82.30;93727.81;4957209;29;20499;-40
2020/12/24 07:24:13;;;;;;;51.90;23.27;;;;;;;2.43;81.52;93720.94;4957275;29;20035;-43
2020/12/24 07:26:41;;;;;;;49.67;23.05;;;;;;;2.73;80.19;93710.41;4956961;29;20031;-42
2020/12/24 07:29:08;;;;;;;29.95;16.30;;;;;;;2.58;79.29;93688.78;4954720;29;20035;-41
2020/12/24 07:31:36;;;;;;;26.10;13.20;;;;;;;3.15;78.14;93728.59;4956646;29;20023;-42
2020/12/24 07:34:01;;;;;;;33.60;17.38;;;;;;;3.55;77.56;93728.13;4939382;29;20074;-42
2020/12/24 07:36:29;;;;;;;28.52;15.68;;;;;;;3.87;76.43;93718.44;4956422;29;20077;-41
2020/12/24 07:38:54;;;;;;;25.92;13.02;;;;;;;4.29;75.02;93723.53;4956434;29;20059;-41
2020/12/24 07:41:20;;;;;;;38.67;17.33;;;;;;;4.68;73.64;93717.94;4956302;29;20061;-43
2020/12/24 07:43:45;;;;;;;42.50;18.65;;;;;;;4.87;72.67;93729.78;4939461;29;20038;-41
2020/12/24 07:46:11;;;;;;;39.97;22.27;;;;;;;5.08;71.73;93725.44;4956182;29;20575;-42
2020/12/24 07:48:36;;;;;;;45.58;18.95;;;;;;;4.88;71.04;93716.84;4939372;29;20056;-41
2020/12/24 07:51:08;;;;;;;29.58;15.32;;;;;;;4.71;72.70;93727.13;4956294;29;20031;-41
2020/12/24 07:53:34;;;;;;;36.67;17.13;;;;;;;4.68;71.99;93728.13;4954090;29;20035;-40
2020/12/24 07:56:08;;;;;;;30.83;16.95;;;;;;;4.26;72.93;93719.09;4956533;29;20029;-40
2020/12/24 07:58:34;;;;;;;35.67;16.65;;;;;;;4.09;74.27;93721.13;4954162;29;20031;-43
2020/12/24 08:01:04;;;;;;;34.33;17.67;;;;;;;3.90;76.17;93720.16;4955947;29;20027;-42
2020/12/24 08:03:30;;;;;;;39.13;16.20;;;;;;;3.66;76.24;93712.47;4955962;29;20042;-42
2020/12/24 08:06:06;;;;;;;35.05;16.02;;;;;;;3.77;76.27;93709.75;4955905;29;20477;-42
2020/12/24 08:08:35;;;;;;;40.47;17.67;;;;;;;3.89;76.24;93707.75;4953401;29;20110;-41
2020/12/24 08:11:00;;;;;;;32.88;12.73;;;;;;;4.14;76.13;93712.16;4954231;29;20452;-42
2020/12/24 08:13:26;;;;;;;39.35;10.70;;;;;;;4.58;74.80;93714.00;4954699;29;20059;-41
2020/12/24 08:15:52;;;;;;;28.50;11.60;;;;;;;4.53;74.38;93707.31;4954486;29;20083;-41
2020/12/24 08:18:21;;;;;;;19.52;9.57;;;;;;;5.03;74.15;93715.28;4937928;29;20038;-40
2020/12/24 08:20:48;;;;;;;34.95;10.55;;;;;;;5.51;72.67;93703.00;4936433;29;20242;-42
2020/12/24 08:23:39;;;;;;;21.58;11.20;;;;;;;5.88;70.52;93700.47;4934753;29;20075;-40
2020/12/24 08:26:05;;;;;;;22.45;10.70;;;;;;;6.61;69.00;93699.19;4940856;29;20047;-40
2020/12/24 08:28:31;;;;;;;25.83;12.40;;;;;;;7.01;68.69;93697.47;4954575;29;20046;-43
2020/12/24 08:30:56;;;;;;;32.08;14.93;;;;;;;7.89;65.76;93717.34;4937884;29;20035;-42
2020/12/24 08:33:23;;;;;;;31.38;16.30;;;;;;;7.52;65.21;93687.97;4936178;29;20617;-40
2020/12/24 08:35:49;;;;;;;30.08;19.55;;;;;;;7.92;65.24;93688.84;4954963;29;20035;-45
2020/12/24 08:38:17;;;;;;;28.67;15.55;;;;;;;7.37;67.02;93684.94;4954474;29;20034;-43
2020/12/24 08:40:42;;;;;;;37.58;20.15;;;;;;;8.05;64.98;93686.09;4951945;29;20038;-40
2020/12/24 08:43:10;;;;;;;32.25;18.30;;;;;;;8.77;63.58;93690.25;4954416;29;20035;-43
2020/12/24 08:45:52;;;;;;;38.85;22.88;;;;;;;8.70;63.07;93688.16;4954306;29;20039;-42
2020/12/24 08:48:33;;;;;;;44.25;25.48;;;;;;;10.01;61.02;93681.44;4954791;29;20035;-43
2020/12/24 08:51:00;;;;;;;45.00;26.63;;;;;;;11.24;57.05;93680.41;4954455;29;20110;-40
2020/12/24 08:53:28;;;;;;;46.33;25.63;;;;;;;12.36;54.12;93672.81;4954582;29;20027;-41
2020/12/24 08:55:54;;;;;;;36.40;23.38;;;;;;;13.33;50.91;93673.88;4954361;29;20039;-41
2020/12/24 08:58:19;;;;;;;41.72;22.90;;;;;;;14.07;48.69;93662.91;4954065;29;20035;-41
2020/12/24 09:00:45;;;;;;;73.10;39.65;;;;;;;13.21;49.85;93665.25;4954177;29;20022;-42
2020/12/24 09:03:23;;;;;;;101.78;47.50;;;;;;;12.92;51.39;93658.50;4954142;29;20037;-41
2020/12/24 09:05:49;;;;;;;47.50;30.85;;;;;;;11.63;55.48;93665.38;4954241;29;20038;-43
2020/12/24 09:08:27;;;;;;;39.90;25.02;;;;;;;12.08;55.19;93659.91;4954066;29;20031;-41
2020/12/24 09:10:54;;;;;;;40.95;26.08;;;;;;;13.02;53.31;93661.41;4954189;29;20043;-42
2020/12/24 09:13:19;;;;;;;35.05;22.98;;;;;;;13.69;52.16;93663.91;4953871;29;20023;-42
2020/12/24 09:15:45;;;;;;;28.15;18.40;;;;;;;14.42;50.89;93653.41;4954017;29;20027;-45
2020/12/24 09:18:11;;;;;;;25.25;16.63;;;;;;;15.17;48.86;93655.41;4953804;29;20105;-43
2020/12/24 09:20:37;;;;;;;34.35;22.33;;;;;;;15.45;47.48;93651.38;4953742;29;20059;-41
2020/12/24 09:23:09;;;;;;;30.25;19.65;;;;;;;15.97;47.57;93651.22;4953301;29;20032;-42
2020/12/24 09:25:36;;;;;;;27.33;19.55;;;;;;;16.92;44.83;93645.22;4953491;29;20125;-41
2020/12/24 09:28:03;;;;;;;25.83;18.58;;;;;;;17.63;43.58;93643.44;4953561;29;20074;-44
2020/12/24 09:30:29;;;;;;;26.38;17.85;;;;;;;17.96;42.24;93635.28;4953672;29;20438;-44
2020/12/24 09:32:56;;;;;;;24.67;17.83;;;;;;;17.42;43.49;93637.72;4952463;29;20027;-42
2020/12/24 09:35:23;;;;;;;27.45;17.35;;;;;;;17.74;43.00;93637.25;4952650;28;20595;-43
2020/12/24 09:37:49;;;;;;;21.85;15.50;;;;;;;18.03;42.05;93629.53;4953506;29;20393;-41
2020/12/24 09:40:15;;;;;;;24.95;17.38;;;;;;;18.53;41.50;93629.50;4953372;29;20031;-43
2020/12/24 09:42:40;;;;;;;18.85;11.40;;;;;;;19.02;39.62;93616.66;4953350;29;20031;-46
2020/12/24 09:45:06;;;;;;;39.28;25.90;;;;;;;19.03;39.39;93609.00;4953476;29;20027;-44
2020/12/24 09:47:31;;;;;;;26.45;17.85;;;;;;;19.67;38.49;93604.75;4951363;29;20051;-44
2020/12/24 09:49:57;;;;;;;18.40;13.57;;;;;;;19.94;37.99;93604.34;4951858;29;20077;-43
2020/12/24 09:52:22;;;;;;;19.65;13.95;;;;;;;19.94;38.02;93599.47;4951060;29;20038;-43
2020/12/24 09:54:48;;;;;;;25.15;15.52;;;;;;;20.34;37.75;93592.78;4951356;29;20027;-42
2020/12/24 09:57:13;;;;;;;32.13;19.67;;;;;;;20.73;37.00;93590.19;4951553;29;20035;-44
2020/12/24 09:59:39;;;;;;;18.55;11.27;;;;;;;20.88;35.75;93579.19;4951673;29;20130;-43
2020/12/24 10:02:04;;;;;;;13.10;8.60;;;;;;;20.08;36.04;93585.56;4952693;29;20456;-44
2020/12/24 10:04:29;;;;;;;13.02;8.88;;;;;;;19.57;37.67;93568.47;4952633;29;20038;-42
2020/12/24 10:06:55;;;;;;;15.50;8.15;;;;;;;20.06;37.72;93568.63;4952623;29;20027;-44
2020/12/24 10:09:20;;;;;;;20.35;10.70;;;;;;;20.55;37.17;93570.25;4952992;29;20019;-45
2020/12/24 10:11:47;;;;;;;21.88;14.23;;;;;;;20.85;36.34;93565.66;4951988;29;20023;-45
2020/12/24 10:14:13;;;;;;;13.02;9.02;;;;;;;20.09;36.69;93559.00;4952845;29;20046;-43
2020/12/24 10:16:38;;;;;;;23.92;11.02;;;;;;;19.79;37.47;93557.91;4951933;29;20059;-46
2020/12/24 10:19:03;;;;;;;14.15;8.80;;;;;;;19.35;37.81;93544.66;4953496;29;20026;-44
2020/12/24 12:22:33;;;;;;;9.80;6.93;;;;;;;18.19;39.42;93407.06;4899088;29;20048;-46
2020/12/24 12:24:59;;;;;;;10.82;8.57;;;;;;;18.08;39.78;93395.84;4913072;29;20044;-45
2020/12/24 12:27:24;;;;;;;11.88;7.30;;;;;;;18.03;40.01;93392.06;4918020;29;20028;-44
2020/12/24 12:29:51;;;;;;;8.18;6.03;;;;;;;17.97;39.44;93397.25;4918025;29;20027;-47
2020/12/24 12:32:17;;;;;;;9.40;6.63;;;;;;;17.72;40.01;93391.38;4917967;29;20048;-47
2020/12/24 12:34:42;;;;;;;12.45;7.93;;;;;;;17.92;40.04;93378.75;4917164;29;20027;-49
2020/12/24 12:37:08;;;;;;;10.60;7.35;;;;;;;17.83;40.97;93379.53;4917252;29;20024;-46
2020/12/24 12:39:33;;;;;;;14.60;10.00;;;;;;;17.90;40.94;93384.22;4922158;29;20040;-43
2020/12/24 12:41:58;;;;;;;13.85;9.38;;;;;;;17.97;41.47;93376.97;4925738;29;20036;-44
2020/12/24 12:44:24;;;;;;;18.35;13.27;;;;;;;17.92;41.23;93373.16;4916669;29;20024;-43
2020/12/24 12:46:50;;;;;;;17.55;10.98;;;;;;;17.96;40.53;93375.47;4916829;29;20020;-44
2020/12/24 12:49:15;;;;;;;16.42;11.00;;;;;;;17.99;40.75;93369.44;4915720;29;20039;-44
2020/12/24 12:51:41;;;;;;;10.25;6.18;;;;;;;17.92;39.62;93378.75;4916007;29;20203;-43
2020/12/24 12:54:06;;;;;;;10.75;7.18;;;;;;;18.04;39.74;93373.25;4911400;29;20020;-43
2020/12/24 12:56:32;;;;;;;9.18;6.88;;;;;;;17.98;40.55;93373.56;4897245;29;20522;-44
2020/12/24 12:58:57;;;;;;;10.70;7.43;;;;;;;17.62;41.75;93385.13;4897412;29;20433;-44
2020/12/24 13:01:23;;;;;;;13.68;7.82;;;;;;;17.26;41.80;93383.34;4897298;29;20036;-43
2020/12/24 13:03:48;;;;;;;10.15;5.75;;;;;;;17.40;42.26;93380.81;4903542;29;20508;-44
2020/12/24 13:06:15;;;;;;;12.55;6.93;;;;;;;17.37;41.92;93379.94;4916030;29;20024;-44
2020/12/24 13:08:41;;;;;;;12.48;7.60;;;;;;;16.95;42.29;93371.47;4915826;29;20040;-43
2020/12/24 13:11:10;;;;;;;17.30;9.10;;;;;;;16.74;43.35;93384.59;4904373;29;20099;-44
2020/12/24 13:13:37;;;;;;;15.55;9.05;;;;;;;16.45;44.11;93376.25;4893066;29;20096;-45
2020/12/24 13:16:04;;;;;;;12.95;8.18;;;;;;;16.37;44.24;93370.09;4894400;29;20529;-46
2020/12/24 13:18:29;;;;;;;14.13;7.68;;;;;;;16.28;44.20;93368.06;4894404;29;20040;-44
2020/12/24 13:20:56;;;;;;;16.05;10.13;;;;;;;16.12;44.64;93362.06;4893646;29;20410;-41
2020/12/24 13:23:22;;;;;;;16.95;8.20;;;;;;;15.94;45.30;93360.72;4892600;29;20127;-41
2020/12/24 13:25:48;;;;;;;10.68;7.72;;;;;;;15.86;46.33;93362.94;4892124;29;20151;-41